Time,TemperatureF,DewpointF,PressureIn,WindDirection,WindDirectionDegrees,WindSpeedMPH,WindSpeedGustMPH,Humidity,HourlyPrecipIn,Conditions,Clouds,dailyrainin,SoftwareType,DateUTC
2013-09-23 00:01:00,45.7,43.2,30.08,NNW,331,0.0,1.0,91,0.00,,---,0.00,VWS V14.01,2013-09-23 04:01:00,
2013-09-23 00:16:00,45.4,42.9,30.08,NNW,331,0.0,1.0,91,0.00,,---,0.00,VWS V14.01,2013-09-23 04:16:00,
2013-09-23 00:31:00,45.0,42.8,30.08,NNW,331,0.0,0.0,92,0.00,,---,0.00,VWS V14.01,2013-09-23 04:31:00,
2013-09-23 00:46:00,44.6,42.4,30.09,NNW,331,0.0,0.0,92,0.00,,---,0.00,VWS V14.01,2013-09-23 04:46:00,
2013-09-23 01:01:00,44.3,42.1,30.09,NNW,331,0.0,0.0,92,0.00,,---,0.00,VWS V14.01,2013-09-23 05:01:00,
2013-09-23 01:16:00,43.7,41.5,30.09,NNW,331,0.0,0.0,92,0.00,,---,0.00,VWS V14.01,2013-09-23 05:16:00,
2013-09-23 01:31:00,43.0,41.1,30.09,NNW,331,0.0,0.0,93,0.00,,---,0.00,VWS V14.01,2013-09-23 05:31:00,
2013-09-23 01:46:00,43.0,41.4,30.09,NNW,331,0.0,1.0,94,0.00,,---,0.00,VWS V14.01,2013-09-23 05:46:00,
2013-09-23 02:01:00,43.3,41.7,30.10,NNW,331,0.0,1.0,94,0.00,,---,0.00,VWS V14.01,2013-09-23 06:01:00,
2013-09-23 02:16:00,43.0,41.4,30.10,NNW,331,0.0,0.0,94,0.00,,---,0.00,VWS V14.01,2013-09-23 06:16:00,
2013-09-23 02:31:00,42.5,40.9,30.10,NNW,331,0.0,0.0,94,0.00,,---,0.00,VWS V14.01,2013-09-23 06:31:00,
2013-09-23 02:46:00,42.6,41.3,30.10,NNW,331,0.0,1.0,95,0.00,,---,0.00,VWS V14.01,2013-09-23 06:46:00,
2013-09-23 03:01:00,42.5,41.2,30.10,NNW,331,0.0,1.0,95,0.00,,---,0.00,VWS V14.01,2013-09-23 07:01:00,
2013-09-23 03:16:00,42.5,41.2,30.10,NNW,331,0.0,1.0,95,0.00,,---,0.00,VWS V14.01,2013-09-23 07:16:00,
2013-09-23 03:31:00,42.3,41.0,30.10,NNW,331,0.0,1.0,95,0.00,,---,0.00,VWS V14.01,2013-09-23 07:31:00,
2013-09-23 03:46:00,42.0,40.7,30.10,NNW,331,0.0,1.0,95,0.00,,---,0.00,VWS V14.01,2013-09-23 07:46:00,
2013-09-23 04:01:00,41.7,40.4,30.10,NNW,331,0.0,1.0,95,0.00,,---,0.00,VWS V14.01,2013-09-23 08:01:00,
2013-09-23 04:16:00,41.4,40.1,30.10,NNW,331,0.0,2.0,95,0.00,,---,0.00,VWS V14.01,2013-09-23 08:16:00,
2013-09-23 04:31:00,41.3,40.0,30.10,NNW,331,0.0,1.0,95,0.00,,---,0.00,VWS V14.01,2013-09-23 08:31:00,
2013-09-23 04:46:00,41.3,40.0,30.10,NNW,331,0.0,1.0,95,0.00,,---,0.00,VWS V14.01,2013-09-23 08:46:00,
2013-09-23 05:01:00,41.3,40.0,30.10,NNW,331,0.0,2.0,95,0.00,,---,0.00,VWS V14.01,2013-09-23 09:01:00,
2013-09-23 05:16:00,41.2,39.9,30.10,NNW,331,0.0,2.0,95,0.00,,---,0.00,VWS V14.01,2013-09-23 09:16:00,
2013-09-23 05:31:00,41.0,39.7,30.10,NNW,331,0.0,2.0,95,0.00,,---,0.00,VWS V14.01,2013-09-23 09:31:00,
2013-09-23 05:46:00,40.7,39.4,30.10,NNW,331,0.0,0.0,95,0.00,,---,0.00,VWS V14.01,2013-09-23 09:46:00,
2013-09-23 06:01:00,40.4,39.1,30.11,NNW,331,0.0,1.0,95,0.00,,---,0.00,VWS V14.01,2013-09-23 10:01:00,
2013-09-23 06:16:00,40.3,39.2,30.11,NNW,331,0.0,1.0,96,0.00,,---,0.00,VWS V14.01,2013-09-23 10:16:00,
2013-09-23 06:31:00,40.0,38.7,30.12,NNW,331,0.0,0.0,95,0.00,,---,0.00,VWS V14.01,2013-09-23 10:31:00,
2013-09-23 06:46:00,40.1,39.0,30.12,NNW,331,0.0,1.0,96,0.00,,---,0.00,VWS V14.01,2013-09-23 10:46:00,
2013-09-23 07:01:00,40.0,39.0,30.13,NNW,331,0.0,1.0,96,0.00,,---,0.00,VWS V14.01,2013-09-23 11:01:00,
2013-09-23 07:16:00,39.9,38.8,30.14,NNW,331,0.0,1.0,96,0.00,,---,0.00,VWS V14.01,2013-09-23 11:16:00,
2013-09-23 07:31:00,39.8,38.8,30.14,NNW,331,0.0,1.0,96,0.00,,---,0.00,VWS V14.01,2013-09-23 11:31:00,
2013-09-23 07:46:00,40.0,39.0,30.15,NNW,331,0.0,3.0,96,0.00,,---,0.00,VWS V14.01,2013-09-23 11:46:00,
2013-09-23 08:01:00,40.1,39.0,30.15,NNW,331,0.0,2.0,96,0.00,,---,0.00,VWS V14.01,2013-09-23 12:01:00,
2013-09-23 08:16:00,41.0,40.0,30.15,NNW,331,1.0,3.0,96,0.00,,---,0.00,VWS V14.01,2013-09-23 12:16:00,
2013-09-23 08:31:00,42.4,41.3,30.15,NNW,331,0.0,4.0,96,0.00,,---,0.00,VWS V14.01,2013-09-23 12:31:00,
2013-09-23 09:01:00,45.7,44.1,30.15,ESE,119,2.0,7.0,94,0.00,,---,0.00,VWS V14.01,2013-09-23 13:01:00,
2013-09-23 09:16:00,46.8,44.3,30.15,East,101,3.0,8.0,91,0.00,,---,0.00,VWS V14.01,2013-09-23 13:16:00,
2013-09-23 09:31:00,48.1,45.0,30.15,ESE,103,1.0,10.0,89,0.00,,---,0.00,VWS V14.01,2013-09-23 13:31:00,
2013-09-23 09:46:00,49.5,45.2,30.15,ESE,104,9.0,11.0,85,0.00,,---,0.00,VWS V14.01,2013-09-23 13:46:00,
2013-09-23 10:01:00,50.6,45.6,30.15,ESE,102,4.0,11.0,83,0.00,,---,0.00,VWS V14.01,2013-09-23 14:01:00,
2013-09-23 10:16:00,51.9,46.3,30.15,East,95,7.0,13.0,81,0.00,,---,0.00,VWS V14.01,2013-09-23 14:16:00,
2013-09-23 10:31:00,53.3,45.9,30.16,ESE,110,4.0,10.0,76,0.00,,---,0.00,VWS V14.01,2013-09-23 14:31:00,
2013-09-23 10:46:00,54.6,45.8,30.16,East,98,9.0,12.0,72,0.00,,---,0.00,VWS V14.01,2013-09-23 14:46:00,
2013-09-23 11:01:00,55.1,46.2,30.16,ESE,111,5.0,11.0,72,0.00,,---,0.00,VWS V14.01,2013-09-23 15:01:00,
2013-09-23 11:16:00,56.2,46.6,30.16,SE,138,3.0,11.0,70,0.00,,---,0.00,VWS V14.01,2013-09-23 15:16:00,
2013-09-23 11:31:00,56.8,46.8,30.15,ESE,121,3.0,12.0,69,0.00,,---,0.00,VWS V14.01,2013-09-23 15:31:00,
2013-09-23 11:46:00,57.9,47.4,30.15,ESE,120,10.0,10.0,68,0.00,,---,0.00,VWS V14.01,2013-09-23 15:46:00,
2013-09-23 12:01:00,58.4,47.1,30.15,East,97,5.0,12.0,66,0.00,,---,0.00,VWS V14.01,2013-09-23 16:01:00,
2013-09-23 12:16:00,59.3,47.5,30.15,East,100,3.0,11.0,65,0.00,,---,0.00,VWS V14.01,2013-09-23 16:16:00,
2013-09-23 12:31:00,60.0,47.4,30.15,South,186,2.0,13.0,63,0.00,,---,0.00,VWS V14.01,2013-09-23 16:31:00,
2013-09-23 12:46:00,60.6,47.1,30.15,ESE,107,1.0,9.0,61,0.00,,---,0.00,VWS V14.01,2013-09-23 16:46:00,
2013-09-23 13:01:00,61.3,47.8,30.15,East,82,5.0,10.0,61,0.00,,---,0.00,VWS V14.01,2013-09-23 17:01:00,
2013-09-23 13:16:00,61.7,48.1,30.15,SE,132,5.0,11.0,61,0.00,,---,0.00,VWS V14.01,2013-09-23 17:16:00,
2013-09-23 13:31:00,62.0,47.5,30.14,East,98,5.0,9.0,59,0.00,,---,0.00,VWS V14.01,2013-09-23 17:31:00,
2013-09-23 13:46:00,62.5,47.1,30.14,ESE,111,2.0,10.0,57,0.00,,---,0.00,VWS V14.01,2013-09-23 17:46:00,
2013-09-23 14:01:00,63.1,47.6,30.13,SE,139,3.0,8.0,57,0.00,,---,0.00,VWS V14.01,2013-09-23 18:01:00,
2013-09-23 14:16:00,63.7,47.2,30.13,SE,131,4.0,13.0,55,0.00,,---,0.00,VWS V14.01,2013-09-23 18:16:00,
2013-09-23 14:31:00,64.1,48.1,30.12,South,187,3.0,11.0,56,0.00,,---,0.00,VWS V14.01,2013-09-23 18:31:00,
2013-09-23 14:46:00,64.6,47.6,30.11,SE,145,3.0,10.0,54,0.00,,---,0.00,VWS V14.01,2013-09-23 18:46:00,
2013-09-23 15:01:00,64.6,47.6,30.11,SSE,167,5.0,8.0,54,0.00,,---,0.00,VWS V14.01,2013-09-23 19:01:00,
2013-09-23 15:16:00,65.3,47.8,30.11,ESE,109,3.0,11.0,53,0.00,,---,0.00,VWS V14.01,2013-09-23 19:16:00,
2013-09-23 15:31:00,66.0,47.9,30.10,SE,127,3.0,9.0,52,0.00,,---,0.00,VWS V14.01,2013-09-23 19:31:00,
2013-09-23 15:46:00,66.1,48.0,30.09,SE,134,4.0,9.0,52,0.00,,---,0.00,VWS V14.01,2013-09-23 19:46:00,
2013-09-23 16:01:00,66.5,47.8,30.09,ESE,115,0.0,15.0,51,0.00,,---,0.00,VWS V14.01,2013-09-23 20:01:00,
2013-09-23 16:16:00,66.6,47.4,30.09,ESE,111,0.0,9.0,50,0.00,,---,0.00,VWS V14.01,2013-09-23 20:16:00,
2013-09-23 16:31:00,66.9,48.7,30.09,South,184,0.0,8.0,52,0.00,,---,0.00,VWS V14.01,2013-09-23 20:31:00,
2013-09-23 16:46:00,66.5,47.8,30.09,SE,137,5.0,10.0,51,0.00,,---,0.00,VWS V14.01,2013-09-23 20:46:00,
2013-09-23 17:01:00,66.8,47.6,30.08,East,93,5.0,8.0,50,0.00,,---,0.00,VWS V14.01,2013-09-23 21:01:00,
2013-09-23 17:16:00,66.7,47.5,30.08,East,82,6.0,12.0,50,0.00,,---,0.00,VWS V14.01,2013-09-23 21:16:00,
2013-09-23 17:31:00,66.6,47.4,30.08,ESE,111,4.0,13.0,50,0.00,,---,0.00,VWS V14.01,2013-09-23 21:31:00,
2013-09-23 17:46:00,66.4,47.7,30.08,ESE,123,4.0,9.0,51,0.00,,---,0.00,VWS V14.01,2013-09-23 21:46:00,
2013-09-23 18:01:00,66.2,47.6,30.08,ESE,113,8.0,10.0,51,0.00,,---,0.00,VWS V14.01,2013-09-23 22:01:00,
2013-09-23 18:16:00,66.3,47.7,30.08,SE,146,1.0,8.0,51,0.00,,---,0.00,VWS V14.01,2013-09-23 22:16:00,
2013-09-23 18:31:00,65.9,48.3,30.08,SE,143,5.0,10.0,53,0.00,,---,0.00,VWS V14.01,2013-09-23 22:31:00,
2013-09-23 18:46:00,65.5,47.9,30.08,ESE,106,3.0,9.0,53,0.00,,---,0.00,VWS V14.01,2013-09-23 22:46:00,
2013-09-23 19:01:00,65.0,48.0,30.08,East,100,1.0,7.0,54,0.00,,---,0.00,VWS V14.01,2013-09-23 23:01:00,
2013-09-23 19:16:00,64.2,48.2,30.08,ESE,113,1.0,8.0,56,0.00,,---,0.00,VWS V14.01,2013-09-23 23:16:00,
2013-09-23 19:31:00,63.1,48.1,30.08,SE,132,3.0,5.0,58,0.00,,---,0.00,VWS V14.01,2013-09-23 23:31:00,
2013-09-23 19:46:00,61.9,47.9,30.08,SE,132,2.0,3.0,60,0.00,,---,0.00,VWS V14.01,2013-09-23 23:46:00,
2013-09-23 20:01:00,60.9,47.8,30.09,SE,132,2.0,3.0,62,0.00,,---,0.00,VWS V14.01,2013-09-24 00:01:00,
2013-09-23 20:16:00,60.0,47.8,30.09,SE,132,0.0,2.0,64,0.00,,---,0.00,VWS V14.01,2013-09-24 00:16:00,
2013-09-23 20:31:00,59.2,47.9,30.09,SE,132,0.0,1.0,66,0.00,,---,0.00,VWS V14.01,2013-09-24 00:31:00,
2013-09-23 20:46:00,58.4,48.3,30.09,SE,132,0.0,2.0,69,0.00,,---,0.00,VWS V14.01,2013-09-24 00:46:00,
2013-09-23 21:01:00,57.9,47.8,30.10,SE,132,0.0,4.0,69,0.00,,---,0.00,VWS V14.01,2013-09-24 01:01:00,
2013-09-23 21:16:00,57.4,48.1,30.10,SE,132,1.0,4.0,71,0.00,,---,0.00,VWS V14.01,2013-09-24 01:16:00,
2013-09-23 21:31:00,56.9,47.6,30.09,East,95,5.0,8.0,71,0.00,,---,0.00,VWS V14.01,2013-09-24 01:31:00,
2013-09-23 21:46:00,56.8,47.5,30.09,East,89,3.0,9.0,71,0.00,,---,0.00,VWS V14.01,2013-09-24 01:46:00,
2013-09-23 22:01:00,56.4,47.5,30.10,ESE,106,0.0,8.0,72,0.00,,---,0.00,VWS V14.01,2013-09-24 02:01:00,
2013-09-23 22:16:00,55.9,47.4,30.10,East,95,0.0,8.0,73,0.00,,---,0.00,VWS V14.01,2013-09-24 02:16:00,
2013-09-23 22:31:00,55.4,46.9,30.10,ESE,115,2.0,9.0,73,0.00,,---,0.00,VWS V14.01,2013-09-24 02:31:00,
2013-09-23 22:46:00,55.2,46.7,30.10,ESE,121,9.0,10.0,73,0.00,,---,0.00,VWS V14.01,2013-09-24 02:46:00,
2013-09-23 23:01:00,55.2,46.7,30.10,East,101,2.0,10.0,73,0.00,,---,0.00,VWS V14.01,2013-09-24 03:01:00,
2013-09-23 23:16:00,54.8,46.3,30.09,East,98,8.0,11.0,73,0.00,,---,0.00,VWS V14.01,2013-09-24 03:16:00,
2013-09-23 23:31:00,54.3,46.2,30.10,ESE,122,4.0,10.0,74,0.00,,---,0.00,VWS V14.01,2013-09-24 03:31:00,
2013-09-23 23:46:00,53.9,46.2,30.10,ESE,118,4.0,11.0,75,0.00,,---,0.00,VWS V14.01,2013-09-24 03:46:00,